Time;durP1;ratioP1;P1;durP2;ratioP2;P2;SDS_P1;SDS_P2;PMS_P1;PMS_P2;Temp;Humidity;BMP_temperature;BMP_pressure;BME280_temperature;BME280_humidity;BME280_pressure;Samples;Min_cycle;Max_cycle;Signal;HPM_P1;HPM_P2
2022/01/04 00:00:07;;;;;;;0.33;0.33;;;13.50;99.90;;;;;;5084913;28;20227;-66
2022/01/04 00:02:34;;;;;;;0.40;0.40;;;13.60;99.90;;;;;;5091151;28;20218;-66
2022/01/04 00:05:01;;;;;;;0.40;0.40;;;13.60;99.90;;;;;;5080987;28;20246;-66
2022/01/04 00:07:28;;;;;;;0.50;0.50;;;13.50;99.90;;;;;;5081498;28;20238;-66
2022/01/04 00:09:56;;;;;;;0.40;0.40;;;13.50;99.90;;;;;;5086970;28;20293;-65
2022/01/04 00:15:08;;;;;;;0.50;0.50;;;13.50;99.90;;;;;;5078669;28;20198;-65
2022/01/04 00:17:36;;;;;;;0.40;0.40;;;13.50;99.90;;;;;;5088478;28;20693;-66
2022/01/04 00:20:04;;;;;;;0.50;0.50;;;13.50;99.90;;;;;;5082731;28;20766;-66
2022/01/04 00:22:31;;;;;;;0.60;0.60;;;13.50;99.90;;;;;;5088041;28;20290;-65
2022/01/04 00:24:59;;;;;;;0.43;0.43;;;13.50;99.90;;;;;;5082572;28;20234;-65
2022/01/04 00:27:26;;;;;;;0.60;0.60;;;13.50;99.90;;;;;;5082493;28;20203;-66
2022/01/04 00:29:53;;;;;;;0.45;0.45;;;13.40;99.90;;;;;;5084113;28;20301;-65
2022/01/04 00:32:20;;;;;;;0.50;0.50;;;13.40;99.90;;;;;;5085798;28;20656;-66
2022/01/04 00:34:47;;;;;;;0.70;0.70;;;13.40;99.90;;;;;;5083966;28;20655;-65
2022/01/04 00:37:14;;;;;;;0.65;0.65;;;13.30;99.90;;;;;;5089011;28;20211;-65
2022/01/04 00:39:41;;;;;;;0.47;0.47;;;13.30;99.90;;;;;;5077923;28;20705;-65
2022/01/04 00:42:09;;;;;;;0.50;0.50;;;13.20;99.90;;;;;;5072305;28;20242;-65
2022/01/04 00:44:36;;;;;;;0.50;0.50;;;13.30;99.90;;;;;;5075212;28;20293;-66
2022/01/04 00:47:04;;;;;;;0.60;0.60;;;13.20;99.90;;;;;;5091062;28;20584;-65
2022/01/04 00:49:30;;;;;;;0.50;0.50;;;13.20;99.90;;;;;;5088448;28;20450;-65
2022/01/04 00:51:59;;;;;;;0.38;0.38;;;13.20;99.90;;;;;;5082125;28;20234;-65
2022/01/04 00:54:26;;;;;;;0.50;0.50;;;13.10;99.90;;;;;;5082931;28;20286;-65
2022/01/04 00:56:53;;;;;;;0.70;0.70;;;13.10;99.90;;;;;;5095561;28;20266;-65
2022/01/04 00:59:22;;;;;;;0.70;0.70;;;13.10;99.90;;;;;;5084772;28;20226;-65
2022/01/04 01:01:48;;;;;;;0.55;0.55;;;13.00;99.90;;;;;;5083786;28;20202;-66
2022/01/04 01:04:15;;;;;;;0.70;0.70;;;13.00;99.90;;;;;;5095992;28;20234;-65
2022/01/04 01:06:42;;;;;;;0.60;0.60;;;12.90;99.90;;;;;;5095797;28;20198;-66
2022/01/04 01:09:09;;;;;;;0.67;0.67;;;12.90;99.90;;;;;;5091327;28;20238;-65
2022/01/04 01:11:36;;;;;;;0.50;0.50;;;12.80;99.90;;;;;;5095120;28;20216;-65
2022/01/04 01:14:03;;;;;;;0.73;0.73;;;12.80;99.90;;;;;;5092789;28;20351;-66
2022/01/04 01:16:31;;;;;;;0.60;0.60;;;12.90;99.90;;;;;;5092569;28;20655;-65
2022/01/04 01:18:58;;;;;;;0.40;0.40;;;12.80;99.90;;;;;;5090282;28;20301;-66
2022/01/04 01:21:25;;;;;;;0.70;0.70;;;12.80;99.90;;;;;;5083867;28;20256;-67
2022/01/04 01:23:52;;;;;;;0.53;0.53;;;12.80;99.90;;;;;;5096173;28;20249;-65
2022/01/04 01:26:19;;;;;;;0.70;0.70;;;12.80;99.90;;;;;;5101819;28;20486;-66
2022/01/04 01:28:47;;;;;;;0.43;0.43;;;12.80;99.90;;;;;;5098949;28;20210;-65
2022/01/04 01:31:13;;;;;;;0.50;0.50;;;12.80;99.90;;;;;;5101236;28;20266;-65
2022/01/04 01:33:42;;;;;;;0.40;0.40;;;12.80;99.90;;;;;;5101985;28;20229;-66
2022/01/04 01:36:09;;;;;;;0.60;0.60;;;12.90;99.90;;;;;;5096202;28;20686;-66
2022/01/04 01:38:35;;;;;;;0.57;0.57;;;12.90;99.90;;;;;;5101136;28;20367;-66
2022/01/04 01:41:02;;;;;;;0.50;0.50;;;12.90;99.90;;;;;;5083535;28;20231;-65
2022/01/04 01:43:29;;;;;;;0.60;0.60;;;12.90;99.90;;;;;;5082720;28;20281;-65
2022/01/04 01:45:57;;;;;;;0.50;0.50;;;13.00;99.90;;;;;;5089830;28;20679;-65
2022/01/04 01:48:25;;;;;;;0.50;0.50;;;13.10;99.90;;;;;;5092328;28;20199;-66
2022/01/04 01:50:53;;;;;;;0.67;0.67;;;13.10;99.90;;;;;;5079463;28;20227;-66
2022/01/04 01:53:21;;;;;;;0.60;0.60;;;13.20;99.90;;;;;;5094566;28;20765;-66
2022/01/04 01:55:48;;;;;;;0.55;0.55;;;13.20;99.90;;;;;;5094248;28;20272;-66
2022/01/04 01:58:15;;;;;;;0.50;0.50;;;13.30;99.90;;;;;;5092543;28;20249;-65
2022/01/04 02:00:42;;;;;;;0.70;0.70;;;13.30;99.90;;;;;;5092418;28;20253;-66
2022/01/04 02:03:09;;;;;;;0.57;0.57;;;13.40;99.90;;;;;;5095289;28;20629;-65
2022/01/04 02:05:36;;;;;;;0.63;0.63;;;13.40;99.90;;;;;;5089479;28;20285;-66
2022/01/04 02:08:06;;;;;;;0.63;0.63;;;13.40;99.90;;;;;;5083086;28;20693;-66
2022/01/04 02:10:33;;;;;;;0.40;0.40;;;13.40;99.90;;;;;;5087918;28;20310;-65
2022/01/04 02:13:01;;;;;;;0.40;0.40;;;13.40;99.90;;;;;;5089803;28;20305;-65
2022/01/04 02:15:29;;;;;;;0.50;0.50;;;13.40;99.90;;;;;;5096398;28;20294;-66
2022/01/04 02:17:56;;;;;;;0.50;0.50;;;13.50;99.90;;;;;;5098921;28;20202;-66
2022/01/04 02:20:25;;;;;;;0.50;0.50;;;13.50;99.90;;;;;;5094947;28;20309;-65
2022/01/04 02:22:53;;;;;;;0.40;0.40;;;13.50;99.90;;;;;;5083065;28;20718;-63
2022/01/04 02:25:19;;;;;;;0.40;0.40;;;13.50;99.90;;;;;;5087186;28;20209;-65
2022/01/04 02:27:47;;;;;;;0.60;0.60;;;13.60;99.90;;;;;;5091916;28;20213;-66
2022/01/04 02:30:17;;;;;;;0.50;0.50;;;13.60;99.90;;;;;;5087920;28;20257;-65
2022/01/04 02:32:46;;;;;;;0.60;0.60;;;13.60;99.90;;;;;;5081316;28;20295;-66
2022/01/04 02:35:16;;;;;;;0.60;0.60;;;13.60;99.90;;;;;;5092102;28;20286;-65
2022/01/04 02:37:44;;;;;;;0.52;0.52;;;13.60;99.90;;;;;;5092151;28;20235;-66
2022/01/04 02:40:11;;;;;;;0.70;0.70;;;13.50;99.90;;;;;;5094035;28;20250;-65
2022/01/04 02:42:38;;;;;;;0.40;0.40;;;13.50;99.90;;;;;;5094595;28;20205;-65
2022/01/04 02:45:06;;;;;;;0.50;0.50;;;13.50;99.90;;;;;;5094622;28;20183;-66
2022/01/04 02:47:34;;;;;;;0.50;0.50;;;13.40;99.90;;;;;;5093980;28;20203;-65
2022/01/04 02:50:01;;;;;;;0.50;0.50;;;13.40;99.90;;;;;;5087386;28;20232;-66
2022/01/04 02:52:28;;;;;;;0.63;0.63;;;13.40;99.90;;;;;;5079532;28;20282;-64
2022/01/04 02:54:56;;;;;;;0.50;0.50;;;13.30;99.90;;;;;;5090549;28;20202;-65
2022/01/04 02:57:23;;;;;;;0.60;0.60;;;13.30;99.90;;;;;;5094838;28;20689;-66
2022/01/04 02:59:50;;;;;;;0.60;0.60;;;13.20;99.90;;;;;;5094307;28;20246;-65
2022/01/04 03:02:17;;;;;;;0.50;0.50;;;13.20;99.90;;;;;;5098038;28;20228;-66
2022/01/04 03:04:44;;;;;;;0.50;0.50;;;13.20;99.90;;;;;;5087179;28;20199;-65
2022/01/04 03:07:11;;;;;;;0.50;0.50;;;13.20;99.90;;;;;;5084426;28;20199;-66
2022/01/04 03:09:38;;;;;;;0.50;0.50;;;13.10;99.90;;;;;;5089734;28;20904;-66
2022/01/04 03:12:08;;;;;;;0.37;0.37;;;13.10;99.90;;;;;;5087193;28;20309;-66
2022/01/04 03:14:35;;;;;;;0.50;0.50;;;13.00;99.90;;;;;;5087753;28;20198;-66
2022/01/04 03:17:02;;;;;;;0.50;0.50;;;13.00;99.90;;;;;;5081740;28;20645;-66
2022/01/04 03:19:29;;;;;;;0.43;0.43;;;13.00;99.90;;;;;;5083724;28;20303;-66
2022/01/04 03:21:56;;;;;;;0.60;0.60;;;13.00;99.90;;;;;;5078728;28;20701;-66
2022/01/04 03:24:23;;;;;;;0.70;0.70;;;12.90;99.90;;;;;;5086983;28;20296;-66
2022/01/04 03:26:50;;;;;;;0.50;0.50;;;12.90;99.90;;;;;;5083741;28;20289;-65
2022/01/04 03:29:19;;;;;;;0.50;0.50;;;12.80;99.90;;;;;;5083914;28;20286;-65
2022/01/04 03:31:46;;;;;;;0.40;0.40;;;12.80;99.90;;;;;;5089501;28;20550;-65
2022/01/04 03:34:13;;;;;;;0.50;0.50;;;12.80;99.90;;;;;;5092050;28;20638;-66
2022/01/04 03:36:41;;;;;;;0.47;0.47;;;12.80;99.90;;;;;;5080910;28;20638;-66
2022/01/04 03:39:11;;;;;;;0.50;0.50;;;12.80;99.90;;;;;;5102822;28;20199;-66
2022/01/04 03:41:40;;;;;;;0.40;0.40;;;12.80;99.90;;;;;;5095266;28;20199;-66
2022/01/04 03:44:07;;;;;;;0.50;0.50;;;12.80;99.90;;;;;;5097979;28;20199;-67
2022/01/04 03:46:36;;;;;;;0.50;0.50;;;12.80;99.90;;;;;;5091832;28;20231;-65
2022/01/04 03:49:03;;;;;;;0.50;0.50;;;12.80;99.90;;;;;;5092324;28;20201;-65
2022/01/04 03:51:30;;;;;;;0.60;0.60;;;12.70;99.90;;;;;;5093433;28;20223;-65
2022/01/04 03:53:57;;;;;;;0.30;0.30;;;12.70;99.90;;;;;;5092132;28;20309;-65
2022/01/04 03:56:24;;;;;;;0.60;0.60;;;12.70;99.90;;;;;;5093295;28;20246;-67
2022/01/04 03:58:51;;;;;;;0.50;0.50;;;12.70;99.90;;;;;;5098868;28;20201;-65
2022/01/04 04:01:18;;;;;;;0.57;0.57;;;12.70;99.90;;;;;;5093263;28;20766;-67
2022/01/04 04:03:47;;;;;;;0.40;0.40;;;12.70;99.90;;;;;;5092669;28;20245;-66
2022/01/04 04:06:14;;;;;;;0.63;0.63;;;12.60;99.90;;;;;;5091376;28;20207;-65
2022/01/04 04:08:41;;;;;;;0.50;0.50;;;12.60;99.90;;;;;;5086048;28;20289;-65
2022/01/04 04:11:08;;;;;;;0.50;0.50;;;12.60;99.90;;;;;;5089670;28;20262;-65
2022/01/04 04:13:35;;;;;;;0.98;0.98;;;12.60;99.90;;;;;;5094000;28;20283;-65
2022/01/04 04:16:02;;;;;;;0.60;0.60;;;12.70;99.90;;;;;;5089413;28;20230;-65
2022/01/04 04:18:28;;;;;;;0.38;0.38;;;12.60;99.90;;;;;;5092971;28;20285;-65
2022/01/04 04:20:57;;;;;;;0.50;0.50;;;12.60;99.90;;;;;;5089984;28;20253;-66
2022/01/04 04:23:24;;;;;;;0.40;0.40;;;12.60;99.90;;;;;;5086923;28;20261;-66
2022/01/04 04:25:50;;;;;;;0.38;0.38;;;12.60;99.90;;;;;;5085696;28;20229;-65
2022/01/04 04:28:18;;;;;;;0.50;0.50;;;12.60;99.90;;;;;;5093622;28;20262;-66
2022/01/04 04:30:44;;;;;;;0.60;0.60;;;12.50;99.90;;;;;;5093150;28;20309;-66
2022/01/04 04:33:11;;;;;;;0.57;0.57;;;12.50;99.90;;;;;;5086908;28;20258;-69
2022/01/04 04:35:38;;;;;;;0.67;0.67;;;12.50;99.90;;;;;;5090444;28;20194;-66
2022/01/04 04:38:07;;;;;;;0.33;0.33;;;12.50;99.90;;;;;;5090567;28;20640;-66
2022/01/04 04:40:35;;;;;;;0.60;0.60;;;12.60;99.90;;;;;;5096274;28;20228;-66
2022/01/04 04:43:02;;;;;;;0.40;0.40;;;12.50;99.90;;;;;;5101887;28;20182;-65
2022/01/04 04:45:28;;;;;;;0.50;0.50;;;12.50;99.90;;;;;;5114436;28;20202;-66
2022/01/04 04:47:55;;;;;;;0.50;0.50;;;12.50;99.90;;;;;;5105191;28;20226;-65
2022/01/04 04:50:22;;;;;;;0.60;0.60;;;12.50;99.90;;;;;;5105921;28;20250;-65
2022/01/04 04:52:49;;;;;;;0.43;0.43;;;12.50;99.90;;;;;;5099237;28;20585;-65
2022/01/04 04:55:17;;;;;;;0.60;0.60;;;12.50;99.90;;;;;;5087740;28;20249;-66
2022/01/04 04:57:45;;;;;;;0.50;0.50;;;12.40;99.90;;;;;;5090961;28;20235;-67
2022/01/04 05:00:13;;;;;;;0.47;0.47;;;12.50;99.90;;;;;;5089586;28;20705;-65
2022/01/04 05:02:40;;;;;;;0.60;0.60;;;12.40;99.90;;;;;;5086014;28;20201;-66
2022/01/04 05:05:08;;;;;;;0.50;0.50;;;12.40;99.90;;;;;;5096402;28;20214;-67
2022/01/04 05:07:35;;;;;;;0.50;0.50;;;12.40;99.90;;;;;;5106249;28;20207;-67
2022/01/04 05:10:02;;;;;;;0.50;0.50;;;12.40;99.90;;;;;;5109187;28;20230;-65
2022/01/04 05:12:30;;;;;;;0.70;0.70;;;12.40;99.90;;;;;;5099221;28;20218;-65
2022/01/04 05:14:57;;;;;;;0.60;0.60;;;12.40;99.90;;;;;;5090284;28;20205;-65
2022/01/04 05:17:24;;;;;;;0.47;0.47;;;12.40;99.90;;;;;;5085643;28;20210;-66
2022/01/04 05:19:51;;;;;;;0.50;0.50;;;12.40;99.90;;;;;;5089102;28;20214;-65
2022/01/04 05:22:18;;;;;;;0.50;0.50;;;12.50;99.90;;;;;;5086983;28;20612;-66
2022/01/04 05:24:45;;;;;;;0.40;0.40;;;12.40;99.90;;;;;;5084256;28;20282;-67
2022/01/04 05:27:12;;;;;;;0.60;0.60;;;12.40;99.90;;;;;;5084125;28;20644;-66
2022/01/04 05:29:40;;;;;;;0.50;0.50;;;12.50;99.90;;;;;;5093456;22;20250;-63
2022/01/04 05:32:08;;;;;;;0.50;0.50;;;12.50;99.90;;;;;;5072503;28;20632;-62
2022/01/04 05:34:35;;;;;;;0.60;0.60;;;12.50;99.90;;;;;;5072558;28;20227;-63
2022/01/04 05:37:02;;;;;;;0.60;0.60;;;12.50;99.90;;;;;;5072769;28;20849;-63
2022/01/04 05:39:29;;;;;;;0.50;0.50;;;12.50;99.90;;;;;;5072717;28;20246;-62
2022/01/04 05:41:56;;;;;;;0.60;0.60;;;12.60;99.90;;;;;;5072587;28;20234;-62
2022/01/04 05:44:23;;;;;;;0.40;0.40;;;12.60;99.90;;;;;;5070261;28;20199;-63
2022/01/04 05:46:51;;;;;;;0.40;0.40;;;12.60;99.90;;;;;;5072210;28;20207;-63
2022/01/04 05:49:18;;;;;;;0.47;0.47;;;12.60;99.90;;;;;;5072563;28;20227;-64
2022/01/04 05:51:45;;;;;;;0.50;0.50;;;12.60;99.90;;;;;;5072557;28;20620;-63
2022/01/04 05:54:12;;;;;;;0.50;0.50;;;12.70;99.90;;;;;;5072761;28;20221;-63
2022/01/04 05:56:39;;;;;;;0.47;0.47;;;12.70;99.90;;;;;;5074102;28;20213;-63
2022/01/04 05:59:06;;;;;;;0.50;0.50;;;12.70;99.90;;;;;;5076624;28;20233;-64
2022/01/04 06:01:33;;;;;;;0.60;0.60;;;12.70;99.90;;;;;;5074975;28;20263;-64
2022/01/04 06:04:01;;;;;;;0.40;0.40;;;12.70;99.90;;;;;;5076147;28;20231;-63
2022/01/04 06:06:28;;;;;;;0.60;0.60;;;12.80;99.90;;;;;;5085070;28;20231;-63
2022/01/04 06:08:55;;;;;;;0.40;0.40;;;12.70;99.90;;;;;;5080601;28;20226;-63
2022/01/04 06:11:43;;;;;;;0.67;0.67;;;12.70;99.90;;;;;;5080120;28;20220;-63
2022/01/04 06:16:55;;;;;;;0.37;0.37;;;12.80;99.90;;;;;;5077462;28;20670;-63
2022/01/04 06:19:23;;;;;;;0.50;0.50;;;12.80;99.90;;;;;;5075427;28;20227;-64
2022/01/04 06:21:50;;;;;;;0.50;0.50;;;12.80;99.90;;;;;;5073422;28;20286;-62
2022/01/04 06:24:17;;;;;;;0.52;0.52;;;12.90;99.90;;;;;;5072196;28;20219;-61
2022/01/04 06:26:44;;;;;;;0.57;0.57;;;12.90;99.90;;;;;;5071392;28;20226;-61
2022/01/04 06:29:12;;;;;;;0.50;0.50;;;12.90;99.90;;;;;;5072892;28;20231;-63
2022/01/04 06:31:40;;;;;;;0.40;0.40;;;13.00;99.90;;;;;;5069283;28;20206;-62
2022/01/04 06:34:07;;;;;;;0.50;0.50;;;13.00;99.90;;;;;;5081079;28;20290;-63
2022/01/04 06:36:36;;;;;;;0.40;0.40;;;13.00;99.90;;;;;;5084570;28;20231;-64
2022/01/04 06:39:04;;;;;;;0.30;0.30;;;13.00;99.90;;;;;;5076804;28;20255;-63
2022/01/04 06:41:31;;;;;;;0.50;0.50;;;13.00;99.90;;;;;;5073413;28;20195;-64
2022/01/04 06:43:58;;;;;;;0.50;0.50;;;13.10;99.90;;;;;;5072909;28;20199;-63
2022/01/04 06:46:25;;;;;;;0.40;0.40;;;13.00;99.90;;;;;;5074717;28;20282;-62
2022/01/04 06:48:52;;;;;;;0.33;0.33;;;13.00;99.90;;;;;;5077831;28;20211;-62
2022/01/04 06:51:19;;;;;;;0.40;0.40;;;13.10;99.90;;;;;;5077181;28;20274;-64
2022/01/04 06:53:47;;;;;;;0.50;0.50;;;13.10;99.90;;;;;;5077780;28;20869;-63
2022/01/04 06:56:14;;;;;;;0.60;0.60;;;13.00;99.90;;;;;;5078701;28;20199;-64
2022/01/04 06:58:41;;;;;;;0.40;0.40;;;13.10;99.90;;;;;;5073856;28;20306;-63
2022/01/04 07:01:08;;;;;;;0.60;0.60;;;13.10;99.90;;;;;;5072220;28;20233;-63
2022/01/04 07:03:35;;;;;;;0.37;0.37;;;13.10;99.90;;;;;;5073143;28;20297;-64
2022/01/04 07:06:02;;;;;;;0.40;0.40;;;13.40;99.90;;;;;;5073086;28;20199;-63
2022/01/04 07:08:29;;;;;;;0.33;0.33;;;13.30;99.90;;;;;;5072640;28;20670;-62
2022/01/04 07:10:57;;;;;;;0.50;0.50;;;13.20;99.90;;;;;;5073529;28;20242;-63
2022/01/04 07:13:24;;;;;;;0.40;0.40;;;13.20;99.90;;;;;;5072537;28;20262;-63
2022/01/04 07:15:50;;;;;;;0.40;0.40;;;13.30;99.90;;;;;;5073203;28;20242;-64
2022/01/04 07:18:17;;;;;;;0.50;0.50;;;13.30;99.90;;;;;;5072503;28;20310;-64
2022/01/04 07:20:44;;;;;;;0.33;0.33;;;13.30;99.90;;;;;;5072776;28;20199;-64
2022/01/04 07:23:11;;;;;;;0.60;0.60;;;13.30;99.90;;;;;;5080057;28;20200;-63
2022/01/04 07:25:38;;;;;;;0.43;0.43;;;13.30;99.90;;;;;;5079800;28;20203;-63
2022/01/04 07:28:06;;;;;;;0.40;0.40;;;13.30;99.90;;;;;;5080908;28;20207;-63
2022/01/04 07:30:34;;;;;;;0.50;0.50;;;13.40;99.90;;;;;;5072955;28;20302;-64
2022/01/04 07:33:00;;;;;;;0.50;0.50;;;13.50;99.90;;;;;;5072707;28;20297;-63
2022/01/04 07:35:28;;;;;;;0.50;0.50;;;13.50;99.90;;;;;;5072327;28;20199;-63
2022/01/04 07:37:54;;;;;;;0.47;0.47;;;13.50;99.90;;;;;;5072360;28;20199;-63
2022/01/04 07:40:21;;;;;;;0.35;0.35;;;13.50;99.90;;;;;;5073576;28;20251;-63
2022/01/04 07:42:49;;;;;;;0.60;0.60;;;13.60;99.90;;;;;;5072237;28;20674;-63
2022/01/04 07:45:17;;;;;;;0.40;0.40;;;13.70;99.90;;;;;;5072224;28;20227;-62
2022/01/04 07:47:44;;;;;;;0.60;0.60;;;13.70;99.90;;;;;;5071871;28;20386;-62
2022/01/04 07:50:12;;;;;;;0.50;0.50;;;13.70;99.90;;;;;;5076127;28;20261;-63
2022/01/04 07:52:39;;;;;;;0.40;0.40;;;13.70;99.90;;;;;;5074110;28;20203;-62
2022/01/04 07:55:07;;;;;;;0.50;0.50;;;13.70;99.90;;;;;;5073779;28;20223;-62
2022/01/04 07:57:35;;;;;;;0.40;0.40;;;13.80;99.90;;;;;;5072079;28;20231;-62
2022/01/04 08:00:02;;;;;;;0.30;0.30;;;13.70;99.90;;;;;;5072059;28;20227;-62
2022/01/04 08:02:30;;;;;;;0.43;0.43;;;13.70;99.90;;;;;;5069143;28;20203;-62
2022/01/04 08:04:57;;;;;;;0.67;0.67;;;13.70;99.90;;;;;;5069057;28;20964;-64
2022/01/04 08:07:24;;;;;;;0.50;0.50;;;13.70;99.90;;;;;;5068043;28;20205;-63
2022/01/04 08:09:51;;;;;;;0.47;0.47;;;13.80;99.90;;;;;;5070526;28;20225;-64
2022/01/04 08:12:18;;;;;;;0.60;0.60;;;13.80;99.90;;;;;;5071134;28;20214;-63
2022/01/04 08:14:45;;;;;;;0.57;0.53;;;13.80;99.90;;;;;;5071076;28;20306;-64
2022/01/04 08:17:12;;;;;;;0.60;0.60;;;13.80;99.90;;;;;;5071178;28;20199;-64
2022/01/04 08:19:41;;;;;;;0.67;0.67;;;13.90;99.90;;;;;;5071347;28;20533;-65
2022/01/04 08:22:08;;;;;;;0.50;0.50;;;14.00;99.90;;;;;;5071159;28;20209;-63
2022/01/04 08:24:34;;;;;;;0.50;0.50;;;14.00;99.90;;;;;;5059200;28;20718;-62
2022/01/04 08:27:01;;;;;;;0.60;0.60;;;14.00;99.90;;;;;;5051267;28;20204;-64
2022/01/04 08:29:29;;;;;;;0.50;0.50;;;14.10;99.90;;;;;;5061725;28;20318;-63
2022/01/04 08:31:56;;;;;;;0.43;0.43;;;14.10;99.90;;;;;;5071117;28;20207;-63
2022/01/04 08:34:23;;;;;;;0.60;0.60;;;14.10;99.90;;;;;;5070134;28;20221;-63
2022/01/04 08:36:51;;;;;;;0.40;0.40;;;14.10;99.90;;;;;;5071485;28;20290;-63
2022/01/04 08:39:18;;;;;;;0.60;0.60;;;14.20;99.90;;;;;;5067656;28;20233;-63
2022/01/04 08:41:46;;;;;;;0.40;0.40;;;14.10;99.90;;;;;;5070735;28;20617;-64
2022/01/04 08:44:13;;;;;;;0.40;0.40;;;14.10;99.90;;;;;;5070592;28;20207;-63
2022/01/04 08:46:41;;;;;;;0.67;0.50;;;14.10;99.90;;;;;;5069268;28;20203;-63
2022/01/04 08:49:08;;;;;;;0.50;0.50;;;14.00;99.90;;;;;;5070837;28;20663;-63
2022/01/04 08:51:35;;;;;;;0.60;0.60;;;14.00;99.90;;;;;;5071552;28;20272;-63
2022/01/04 08:54:03;;;;;;;0.30;0.30;;;14.10;99.90;;;;;;5074690;28;20864;-63
2022/01/04 08:56:30;;;;;;;0.43;0.43;;;14.00;99.90;;;;;;5071167;28;20256;-64
2022/01/04 08:58:58;;;;;;;0.40;0.40;;;14.00;99.90;;;;;;5070498;28;20703;-64
2022/01/04 09:01:25;;;;;;;0.70;0.70;;;14.00;99.90;;;;;;5070783;28;20199;-63
2022/01/04 09:03:52;;;;;;;0.70;0.70;;;13.90;99.90;;;;;;5068194;28;20196;-63
2022/01/04 09:06:21;;;;;;;0.50;0.50;;;13.90;99.90;;;;;;5071294;28;20206;-63
2022/01/04 09:08:48;;;;;;;0.50;0.50;;;13.90;99.90;;;;;;5070834;28;20219;-64
2022/01/04 09:11:17;;;;;;;0.60;0.60;;;13.80;99.90;;;;;;5065593;28;20290;-63
2022/01/04 09:13:45;;;;;;;0.70;0.70;;;13.80;99.90;;;;;;5064822;28;20207;-64
2022/01/04 09:18:56;;;;;;;0.40;0.40;;;13.90;99.90;;;;;;5066760;28;20218;-64
2022/01/04 09:21:24;;;;;;;0.53;0.53;;;13.80;99.90;;;;;;5072597;28;20295;-62
2022/01/04 09:23:53;;;;;;;0.75;0.57;;;13.80;99.90;;;;;;5070823;28;20204;-63
2022/01/04 09:26:22;;;;;;;0.40;0.40;;;13.90;99.90;;;;;;5071212;28;20370;-63
2022/01/04 09:28:49;;;;;;;0.53;0.53;;;14.00;99.90;;;;;;5075387;28;20245;-63
2022/01/04 09:31:16;;;;;;;0.70;0.70;;;13.90;99.90;;;;;;5075326;28;20205;-64
2022/01/04 09:33:44;;;;;;;0.57;0.57;;;13.90;99.90;;;;;;5076112;28;20221;-64
2022/01/04 09:36:11;;;;;;;0.55;0.55;;;14.00;99.90;;;;;;5083607;28;20240;-62
2022/01/04 09:38:38;;;;;;;0.50;0.50;;;14.10;99.90;;;;;;5083257;28;20253;-62
2022/01/04 09:41:05;;;;;;;0.60;0.60;;;14.10;99.90;;;;;;5076673;28;20241;-62
2022/01/04 09:43:33;;;;;;;0.60;0.60;;;14.10;99.90;;;;;;5067529;28;20199;-62
2022/01/04 09:46:00;;;;;;;0.37;0.37;;;14.10;99.90;;;;;;5073255;28;20726;-64
2022/01/04 09:48:27;;;;;;;0.40;0.40;;;14.10;99.90;;;;;;5070791;28;20246;-63
2022/01/04 09:50:57;;;;;;;0.60;0.60;;;14.20;99.90;;;;;;5070254;28;20200;-63
2022/01/04 09:53:25;;;;;;;0.70;0.70;;;14.20;99.90;;;;;;5073724;28;20306;-62
2022/01/04 09:55:54;;;;;;;0.60;0.60;;;14.20;99.90;;;;;;5073539;28;20302;-63
2022/01/04 09:58:23;;;;;;;0.50;0.50;;;14.20;99.90;;;;;;5073587;28;20199;-62
2022/01/04 10:00:52;;;;;;;0.50;0.50;;;14.30;99.90;;;;;;5073406;28;20199;-62
2022/01/04 10:03:21;;;;;;;0.43;0.43;;;14.30;99.90;;;;;;5074035;28;20208;-63
2022/01/04 10:05:49;;;;;;;0.50;0.50;;;14.40;99.90;;;;;;5075056;28;20598;-65
2022/01/04 10:08:16;;;;;;;0.60;0.60;;;14.40;99.90;;;;;;5075585;28;20233;-63
2022/01/04 10:10:44;;;;;;;0.50;0.50;;;14.40;99.90;;;;;;5077224;28;20693;-62
2022/01/04 10:13:15;;;;;;;0.47;0.47;;;14.50;99.90;;;;;;5072846;28;20200;-64
2022/01/04 10:15:47;;;;;;;0.80;0.80;;;14.60;99.90;;;;;;5072498;28;20663;-63
2022/01/04 10:18:28;;;;;;;0.57;0.57;;;14.60;99.90;;;;;;5072998;28;20197;-62
2022/01/04 10:21:13;;;;;;;0.50;0.50;;;14.70;99.90;;;;;;5073545;28;20199;-62
2022/01/04 10:23:55;;;;;;;0.47;0.47;;;14.70;99.90;;;;;;5072777;28;20196;-63
2022/01/04 10:26:32;;;;;;;0.47;0.47;;;14.60;99.90;;;;;;5073929;28;20205;-63
2022/01/04 10:28:59;;;;;;;0.50;0.50;;;14.60;99.90;;;;;;5076445;28;20330;-65
2022/01/04 10:31:26;;;;;;;0.60;0.60;;;14.60;99.90;;;;;;5080458;28;20219;-63
2022/01/04 10:33:56;;;;;;;0.50;0.50;;;14.60;99.90;;;;;;5076810;28;20200;-62
2022/01/04 10:36:25;;;;;;;1.80;1.70;;;14.60;99.90;;;;;;5072600;28;20298;-62
2022/01/04 10:38:52;;;;;;;0.75;0.75;;;14.60;99.90;;;;;;5072403;28;20219;-63
2022/01/04 10:41:23;;;;;;;0.60;0.60;;;14.60;99.90;;;;;;5072222;28;20230;-64
2022/01/04 10:43:53;;;;;;;0.60;0.60;;;14.60;99.90;;;;;;5072638;28;20204;-62
2022/01/04 10:46:31;;;;;;;0.67;0.67;;;14.70;99.90;;;;;;5073861;28;20643;-62
2022/01/04 10:49:00;;;;;;;0.60;0.60;;;14.70;99.90;;;;;;5073731;28;20573;-63
2022/01/04 10:51:28;;;;;;;0.70;0.70;;;14.80;99.90;;;;;;5072421;28;20200;-63
2022/01/04 10:53:57;;;;;;;0.53;0.53;;;14.80;99.90;;;;;;5072596;28;20215;-64
2022/01/04 10:56:27;;;;;;;0.80;0.80;;;14.70;99.90;;;;;;5072710;28;20223;-63
2022/01/04 10:58:56;;;;;;;0.60;0.60;;;14.70;99.90;;;;;;5073148;28;20532;-63
2022/01/04 11:01:26;;;;;;;0.70;0.70;;;14.80;99.90;;;;;;5073233;28;20309;-62
2022/01/04 11:03:54;;;;;;;0.57;0.57;;;14.70;99.90;;;;;;5071996;28;20238;-63
2022/01/04 11:06:25;;;;;;;0.53;0.53;;;14.70;99.90;;;;;;5073179;28;20191;-64
2022/01/04 11:08:52;;;;;;;0.50;0.50;;;14.80;99.90;;;;;;5072366;28;20305;-64
2022/01/04 11:11:19;;;;;;;0.50;0.50;;;14.80;99.90;;;;;;5072219;28;20753;-63
2022/01/04 11:13:48;;;;;;;1.07;0.60;;;14.80;99.90;;;;;;5071945;28;20204;-63
2022/01/04 11:16:18;;;;;;;0.70;0.70;;;14.90;99.90;;;;;;5071256;28;20253;-64
2022/01/04 11:18:49;;;;;;;0.80;0.80;;;14.90;99.90;;;;;;5069774;28;20238;-64
2022/01/04 11:21:16;;;;;;;1.13;0.67;;;14.90;99.90;;;;;;5071384;28;20546;-64
2022/01/04 11:23:44;;;;;;;0.60;0.60;;;14.90;99.90;;;;;;5071939;28;20286;-64
2022/01/04 11:26:13;;;;;;;0.70;0.70;;;15.00;99.90;;;;;;5073149;28;20199;-62
2022/01/04 11:28:43;;;;;;;0.60;0.60;;;15.00;99.90;;;;;;5071998;28;20677;-64
2022/01/04 11:31:29;;;;;;;0.70;0.70;;;15.00;99.90;;;;;;5072337;28;20207;-64
2022/01/04 11:34:10;;;;;;;0.50;0.50;;;15.00;99.90;;;;;;5081360;28;20283;-64
2022/01/04 11:36:39;;;;;;;0.70;0.70;;;14.90;99.90;;;;;;5090118;28;20223;-63
2022/01/04 11:39:27;;;;;;;0.70;0.70;;;14.90;99.90;;;;;;5087604;28;20227;-63
2022/01/04 11:41:55;;;;;;;0.47;0.47;;;14.90;99.90;;;;;;5088373;28;20333;-63
2022/01/04 11:44:24;;;;;;;0.50;0.50;;;15.00;99.90;;;;;;5081329;28;20298;-64
2022/01/04 11:47:01;;;;;;;0.53;0.53;;;15.00;99.90;;;;;;5085226;28;20227;-64
2022/01/04 11:49:28;;;;;;;0.70;0.70;;;15.00;99.90;;;;;;5073223;28;20302;-64
2022/01/04 11:51:55;;;;;;;0.60;0.60;;;14.90;99.90;;;;;;5069686;28;20685;-62
2022/01/04 11:54:26;;;;;;;0.47;0.47;;;14.90;99.90;;;;;;5070363;28;20210;-64
2022/01/04 11:56:55;;;;;;;0.57;0.57;;;15.00;99.90;;;;;;5069441;28;20207;-63
2022/01/04 11:59:24;;;;;;;0.80;0.80;;;15.00;99.90;;;;;;5069693;28;20714;-64
2022/01/04 12:01:52;;;;;;;0.60;0.60;;;15.00;99.90;;;;;;5069482;28;20207;-62
2022/01/04 12:04:49;;;;;;;0.50;0.50;;;15.10;99.90;;;;;;5070793;28;20209;-62
2022/01/04 12:07:45;;;;;;;0.60;0.60;;;15.10;99.90;;;;;;5069386;28;20202;-64
2022/01/04 12:10:38;;;;;;;0.60;0.60;;;15.10;99.90;;;;;;5069030;28;20219;-63
2022/01/04 12:13:09;;;;;;;0.60;0.60;;;15.10;99.90;;;;;;5069156;28;20214;-64
2022/01/04 12:15:57;;;;;;;1.03;0.97;;;15.20;99.90;;;;;;5070084;28;20238;-64
2022/01/04 12:19:01;;;;;;;0.60;0.60;;;15.20;99.90;;;;;;5071047;28;20290;-62
2022/01/04 12:21:39;;;;;;;0.50;0.50;;;15.20;99.90;;;;;;5072874;28;20289;-63
2022/01/04 12:24:07;;;;;;;0.50;0.50;;;15.20;99.90;;;;;;5073180;28;20278;-64
2022/01/04 12:26:38;;;;;;;0.40;0.40;;;15.20;99.90;;;;;;5070588;28;20195;-62
2022/01/04 12:29:33;;;;;;;0.50;0.50;;;15.20;99.90;;;;;;5070865;28;20675;-63
2022/01/04 12:32:04;;;;;;;0.53;0.53;;;15.20;99.90;;;;;;5070271;28;20203;-64
2022/01/04 12:34:50;;;;;;;0.40;0.40;;;15.20;99.90;;;;;;5071491;28;20207;-63
2022/01/04 12:37:19;;;;;;;0.77;0.60;;;15.20;99.90;;;;;;5068576;28;20195;-64
2022/01/04 12:39:50;;;;;;;0.70;0.70;;;15.30;99.90;;;;;;5070812;28;20226;-62
2022/01/04 12:42:20;;;;;;;0.40;0.40;;;15.20;99.90;;;;;;5071169;28;20285;-63
2022/01/04 12:44:52;;;;;;;0.50;0.50;;;15.20;99.90;;;;;;5071374;28;20229;-64
2022/01/04 12:47:20;;;;;;;0.60;0.60;;;15.20;99.90;;;;;;5069463;28;20203;-63
2022/01/04 12:49:47;;;;;;;0.53;0.53;;;15.20;99.90;;;;;;5069164;28;20219;-64
2022/01/04 12:52:17;;;;;;;0.57;0.53;;;15.20;99.90;;;;;;5069856;28;20231;-62
2022/01/04 12:54:44;;;;;;;0.60;0.60;;;15.20;99.90;;;;;;5070520;28;20265;-63
2022/01/04 12:57:14;;;;;;;0.60;0.60;;;15.20;99.90;;;;;;5074603;28;20203;-63
2022/01/04 12:59:44;;;;;;;0.60;0.60;;;15.20;99.90;;;;;;5074298;28;20223;-63
2022/01/04 13:02:15;;;;;;;0.57;0.57;;;15.20;99.90;;;;;;5073914;28;20202;-62